sensor_id;sensor_type;location;lat;lon;timestamp;P1;durP1;ratioP1;P2;durP2;ratioP2
65463;SDS011;52063;45.110;9.870;2023-04-06T00:01:50;6.43;;;4.78;;
65463;SDS011;52063;45.110;9.870;2023-04-06T00:04:16;6.70;;;4.30;;
65463;SDS011;52063;45.110;9.870;2023-04-06T00:06:41;6.37;;;4.43;;
65463;SDS011;52063;45.110;9.870;2023-04-06T00:09:07;5.90;;;4.60;;
65463;SDS011;52063;45.110;9.870;2023-04-06T00:11:33;6.20;;;4.30;;
65463;SDS011;52063;45.110;9.870;2023-04-06T00:13:58;5.22;;;4.22;;
65463;SDS011;52063;45.110;9.870;2023-04-06T00:16:24;7.60;;;4.47;;
65463;SDS011;52063;45.110;9.870;2023-04-06T00:18:49;5.00;;;4.10;;
65463;SDS011;52063;45.110;9.870;2023-04-06T00:21:15;4.63;;;4.13;;
65463;SDS011;52063;45.110;9.870;2023-04-06T00:23:41;5.40;;;4.50;;
65463;SDS011;52063;45.110;9.870;2023-04-06T00:26:07;5.07;;;4.13;;
65463;SDS011;52063;45.110;9.870;2023-04-06T00:28:33;5.25;;;4.30;;
65463;SDS011;52063;45.110;9.870;2023-04-06T00:30:59;4.10;;;3.70;;
65463;SDS011;52063;45.110;9.870;2023-04-06T00:33:24;4.73;;;4.00;;
65463;SDS011;52063;45.110;9.870;2023-04-06T00:35:50;6.13;;;4.90;;
65463;SDS011;52063;45.110;9.870;2023-04-06T00:38:15;6.13;;;3.73;;
65463;SDS011;52063;45.110;9.870;2023-04-06T00:40:42;5.03;;;4.00;;
65463;SDS011;52063;45.110;9.870;2023-04-06T00:43:09;4.22;;;3.42;;
65463;SDS011;52063;45.110;9.870;2023-04-06T00:45:36;4.80;;;4.30;;
65463;SDS011;52063;45.110;9.870;2023-04-06T00:48:01;4.97;;;4.17;;
65463;SDS011;52063;45.110;9.870;2023-04-06T00:50:27;6.67;;;4.00;;
65463;SDS011;52063;45.110;9.870;2023-04-06T00:52:54;4.40;;;3.95;;
65463;SDS011;52063;45.110;9.870;2023-04-06T00:55:25;5.40;;;4.43;;
65463;SDS011;52063;45.110;9.870;2023-04-06T00:57:51;5.88;;;4.10;;
65463;SDS011;52063;45.110;9.870;2023-04-06T01:00:17;4.90;;;4.40;;
65463;SDS011;52063;45.110;9.870;2023-04-06T01:02:45;5.88;;;3.95;;
65463;SDS011;52063;45.110;9.870;2023-04-06T01:05:14;5.28;;;4.07;;
65463;SDS011;52063;45.110;9.870;2023-04-06T01:07:55;6.65;;;4.15;;
65463;SDS011;52063;45.110;9.870;2023-04-06T01:10:24;5.85;;;4.00;;
65463;SDS011;52063;45.110;9.870;2023-04-06T01:12:56;4.47;;;3.90;;
65463;SDS011;52063;45.110;9.870;2023-04-06T01:15:40;4.63;;;4.03;;
65463;SDS011;52063;45.110;9.870;2023-04-06T01:18:09;4.57;;;3.92;;
65463;SDS011;52063;45.110;9.870;2023-04-06T01:20:39;4.05;;;3.60;;
65463;SDS011;52063;45.110;9.870;2023-04-06T01:23:05;4.97;;;3.83;;
65463;SDS011;52063;45.110;9.870;2023-04-06T01:25:32;6.03;;;3.40;;
65463;SDS011;52063;45.110;9.870;2023-04-06T01:28:05;4.80;;;4.07;;
65463;SDS011;52063;45.110;9.870;2023-04-06T01:30:47;4.13;;;3.72;;
65463;SDS011;52063;45.110;9.870;2023-04-06T01:33:25;3.95;;;3.55;;
65463;SDS011;52063;45.110;9.870;2023-04-06T01:36:04;6.65;;;3.75;;
65463;SDS011;52063;45.110;9.870;2023-04-06T01:38:30;4.23;;;3.30;;
65463;SDS011;52063;45.110;9.870;2023-04-06T01:40:56;4.50;;;3.63;;
65463;SDS011;52063;45.110;9.870;2023-04-06T01:43:23;5.22;;;3.72;;
65463;SDS011;52063;45.110;9.870;2023-04-06T01:46:04;4.63;;;3.80;;
65463;SDS011;52063;45.110;9.870;2023-04-06T01:48:37;3.45;;;3.15;;
65463;SDS011;52063;45.110;9.870;2023-04-06T01:51:16;4.72;;;4.10;;
65463;SDS011;52063;45.110;9.870;2023-04-06T01:53:48;5.20;;;3.75;;
65463;SDS011;52063;45.110;9.870;2023-04-06T01:56:15;4.00;;;3.60;;
65463;SDS011;52063;45.110;9.870;2023-04-06T01:58:49;4.77;;;3.87;;
65463;SDS011;52063;45.110;9.870;2023-04-06T02:01:15;4.32;;;3.38;;
65463;SDS011;52063;45.110;9.870;2023-04-06T02:03:53;4.32;;;3.67;;
65463;SDS011;52063;45.110;9.870;2023-04-06T02:06:18;4.00;;;3.60;;
65463;SDS011;52063;45.110;9.870;2023-04-06T02:08:44;3.70;;;3.27;;
65463;SDS011;52063;45.110;9.870;2023-04-06T02:11:10;5.68;;;3.50;;
65463;SDS011;52063;45.110;9.870;2023-04-06T02:13:41;3.67;;;3.07;;
65463;SDS011;52063;45.110;9.870;2023-04-06T02:16:08;4.13;;;3.72;;
65463;SDS011;52063;45.110;9.870;2023-04-06T02:18:34;4.50;;;3.60;;
65463;SDS011;52063;45.110;9.870;2023-04-06T02:21:00;3.67;;;3.20;;
65463;SDS011;52063;45.110;9.870;2023-04-06T02:23:25;4.05;;;3.47;;
65463;SDS011;52063;45.110;9.870;2023-04-06T02:25:51;4.00;;;3.60;;
65463;SDS011;52063;45.110;9.870;2023-04-06T02:28:17;3.75;;;3.45;;
65463;SDS011;52063;45.110;9.870;2023-04-06T02:30:43;3.63;;;3.33;;
65463;SDS011;52063;45.110;9.870;2023-04-06T02:33:09;4.47;;;3.50;;
65463;SDS011;52063;45.110;9.870;2023-04-06T02:35:41;4.32;;;3.30;;
65463;SDS011;52063;45.110;9.870;2023-04-06T02:38:09;5.80;;;2.90;;
65463;SDS011;52063;45.110;9.870;2023-04-06T02:40:35;4.33;;;3.20;;
65463;SDS011;52063;45.110;9.870;2023-04-06T02:43:11;3.30;;;2.90;;
65463;SDS011;52063;45.110;9.870;2023-04-06T02:45:37;3.63;;;3.33;;
65463;SDS011;52063;45.110;9.870;2023-04-06T02:48:03;4.45;;;2.90;;
65463;SDS011;52063;45.110;9.870;2023-04-06T02:50:30;3.28;;;2.97;;
65463;SDS011;52063;45.110;9.870;2023-04-06T02:53:01;3.33;;;3.00;;
65463;SDS011;52063;45.110;9.870;2023-04-06T02:55:26;3.10;;;2.80;;
65463;SDS011;52063;45.110;9.870;2023-04-06T02:57:52;4.20;;;2.90;;
65463;SDS011;52063;45.110;9.870;2023-04-06T03:00:21;3.40;;;2.90;;
65463;SDS011;52063;45.110;9.870;2023-04-06T03:02:47;3.75;;;3.17;;
65463;SDS011;52063;45.110;9.870;2023-04-06T03:05:15;4.00;;;3.03;;
65463;SDS011;52063;45.110;9.870;2023-04-06T03:07:42;3.53;;;3.23;;
65463;SDS011;52063;45.110;9.870;2023-04-06T03:10:13;4.10;;;2.80;;
65463;SDS011;52063;45.110;9.870;2023-04-06T03:12:39;3.53;;;3.00;;
65463;SDS011;52063;45.110;9.870;2023-04-06T03:15:14;3.42;;;2.85;;
65463;SDS011;52063;45.110;9.870;2023-04-06T03:17:44;3.30;;;3.00;;
65463;SDS011;52063;45.110;9.870;2023-04-06T03:20:20;7.53;;;3.03;;
65463;SDS011;52063;45.110;9.870;2023-04-06T03:22:46;3.30;;;2.63;;
65463;SDS011;52063;45.110;9.870;2023-04-06T03:25:14;3.65;;;3.05;;
65463;SDS011;52063;45.110;9.870;2023-04-06T03:27:42;2.73;;;2.40;;
65463;SDS011;52063;45.110;9.870;2023-04-06T03:30:11;2.75;;;2.55;;
65463;SDS011;52063;45.110;9.870;2023-04-06T03:32:37;3.45;;;2.90;;
65463;SDS011;52063;45.110;9.870;2023-04-06T03:35:03;2.93;;;2.40;;
65463;SDS011;52063;45.110;9.870;2023-04-06T03:37:30;2.80;;;2.60;;
65463;SDS011;52063;45.110;9.870;2023-04-06T03:39:59;3.30;;;2.90;;
65463;SDS011;52063;45.110;9.870;2023-04-06T03:42:25;3.07;;;2.43;;
65463;SDS011;52063;45.110;9.870;2023-04-06T03:44:57;4.00;;;2.65;;
65463;SDS011;52063;45.110;9.870;2023-04-06T03:47:23;3.90;;;2.72;;
65463;SDS011;52063;45.110;9.870;2023-04-06T03:49:50;3.13;;;2.55;;
65463;SDS011;52063;45.110;9.870;2023-04-06T03:52:15;3.53;;;2.80;;
65463;SDS011;52063;45.110;9.870;2023-04-06T03:54:41;2.77;;;2.50;;
65463;SDS011;52063;45.110;9.870;2023-04-06T03:57:09;4.10;;;2.58;;
65463;SDS011;52063;45.110;9.870;2023-04-06T03:59:34;3.10;;;2.80;;
65463;SDS011;52063;45.110;9.870;2023-04-06T04:02:00;2.93;;;2.73;;
65463;SDS011;52063;45.110;9.870;2023-04-06T04:04:26;3.20;;;2.63;;
65463;SDS011;52063;45.110;9.870;2023-04-06T04:06:51;3.20;;;2.70;;
65463;SDS011;52063;45.110;9.870;2023-04-06T04:09:17;3.47;;;2.80;;
65463;SDS011;52063;45.110;9.870;2023-04-06T04:11:42;2.95;;;2.70;;
65463;SDS011;52063;45.110;9.870;2023-04-06T04:14:08;3.20;;;2.90;;
65463;SDS011;52063;45.110;9.870;2023-04-06T04:16:33;6.23;;;2.60;;
65463;SDS011;52063;45.110;9.870;2023-04-06T04:18:59;2.95;;;2.42;;
65463;SDS011;52063;45.110;9.870;2023-04-06T04:21:25;3.80;;;2.73;;
65463;SDS011;52063;45.110;9.870;2023-04-06T04:23:51;4.40;;;2.75;;
65463;SDS011;52063;45.110;9.870;2023-04-06T04:26:17;2.47;;;2.28;;
65463;SDS011;52063;45.110;9.870;2023-04-06T04:28:45;2.67;;;2.47;;
65463;SDS011;52063;45.110;9.870;2023-04-06T04:31:11;2.97;;;2.67;;
65463;SDS011;52063;45.110;9.870;2023-04-06T04:33:37;4.10;;;2.60;;
65463;SDS011;52063;45.110;9.870;2023-04-06T04:36:08;3.00;;;2.60;;
65463;SDS011;52063;45.110;9.870;2023-04-06T04:38:39;3.07;;;2.37;;
65463;SDS011;52063;45.110;9.870;2023-04-06T04:41:05;2.97;;;2.67;;
65463;SDS011;52063;45.110;9.870;2023-04-06T04:43:32;4.20;;;2.70;;
65463;SDS011;52063;45.110;9.870;2023-04-06T04:46:00;4.67;;;2.10;;
65463;SDS011;52063;45.110;9.870;2023-04-06T04:48:35;2.60;;;2.40;;
65463;SDS011;52063;45.110;9.870;2023-04-06T04:51:04;3.40;;;2.88;;
65463;SDS011;52063;45.110;9.870;2023-04-06T04:53:42;2.67;;;2.47;;
65463;SDS011;52063;45.110;9.870;2023-04-06T04:56:17;3.25;;;2.60;;
65463;SDS011;52063;45.110;9.870;2023-04-06T04:58:45;2.40;;;2.20;;
65463;SDS011;52063;45.110;9.870;2023-04-06T05:01:11;3.03;;;2.72;;
65463;SDS011;52063;45.110;9.870;2023-04-06T05:03:38;2.78;;;2.50;;
65463;SDS011;52063;45.110;9.870;2023-04-06T05:06:07;3.33;;;2.60;;
65463;SDS011;52063;45.110;9.870;2023-04-06T05:08:35;2.57;;;2.37;;
65463;SDS011;52063;45.110;9.870;2023-04-06T05:11:01;2.92;;;2.28;;
65463;SDS011;52063;45.110;9.870;2023-04-06T05:13:30;3.88;;;2.50;;
65463;SDS011;52063;45.110;9.870;2023-04-06T05:15:57;2.60;;;2.40;;
65463;SDS011;52063;45.110;9.870;2023-04-06T05:18:27;3.92;;;2.50;;
65463;SDS011;52063;45.110;9.870;2023-04-06T05:20:54;2.55;;;2.35;;
65463;SDS011;52063;45.110;9.870;2023-04-06T05:23:26;3.92;;;2.60;;
65463;SDS011;52063;45.110;9.870;2023-04-06T05:25:51;2.97;;;2.55;;
65463;SDS011;52063;45.110;9.870;2023-04-06T05:28:20;2.33;;;2.13;;
65463;SDS011;52063;45.110;9.870;2023-04-06T05:30:46;2.40;;;2.20;;
65463;SDS011;52063;45.110;9.870;2023-04-06T05:33:12;3.40;;;2.45;;
65463;SDS011;52063;45.110;9.870;2023-04-06T05:35:59;3.47;;;2.40;;
65463;SDS011;52063;45.110;9.870;2023-04-06T05:38:26;3.05;;;2.63;;
65463;SDS011;52063;45.110;9.870;2023-04-06T05:40:54;3.47;;;2.53;;
65463;SDS011;52063;45.110;9.870;2023-04-06T05:43:23;2.88;;;2.63;;
65463;SDS011;52063;45.110;9.870;2023-04-06T05:45:53;2.70;;;2.50;;
65463;SDS011;52063;45.110;9.870;2023-04-06T05:48:19;4.00;;;2.47;;
65463;SDS011;52063;45.110;9.870;2023-04-06T05:50:48;2.75;;;2.55;;
65463;SDS011;52063;45.110;9.870;2023-04-06T05:53:17;2.42;;;2.22;;
65463;SDS011;52063;45.110;9.870;2023-04-06T05:55:50;2.63;;;2.40;;
65463;SDS011;52063;45.110;9.870;2023-04-06T05:58:20;2.85;;;2.58;;
65463;SDS011;52063;45.110;9.870;2023-04-06T06:00:48;2.47;;;2.28;;
65463;SDS011;52063;45.110;9.870;2023-04-06T06:03:16;2.88;;;2.50;;
65463;SDS011;52063;45.110;9.870;2023-04-06T06:05:47;2.50;;;2.30;;
65463;SDS011;52063;45.110;9.870;2023-04-06T06:08:19;2.77;;;2.40;;
65463;SDS011;52063;45.110;9.870;2023-04-06T06:10:47;2.38;;;2.17;;
65463;SDS011;52063;45.110;9.870;2023-04-06T06:13:15;2.63;;;2.42;;
65463;SDS011;52063;45.110;9.870;2023-04-06T06:15:41;2.95;;;2.40;;
65463;SDS011;52063;45.110;9.870;2023-04-06T06:18:07;2.53;;;2.30;;
65463;SDS011;52063;45.110;9.870;2023-04-06T06:20:33;2.38;;;2.17;;
65463;SDS011;52063;45.110;9.870;2023-04-06T06:23:02;2.55;;;2.15;;
65463;SDS011;52063;45.110;9.870;2023-04-06T06:25:28;2.83;;;2.53;;
65463;SDS011;52063;45.110;9.870;2023-04-06T06:27:56;2.27;;;2.07;;
65463;SDS011;52063;45.110;9.870;2023-04-06T06:30:22;6.47;;;2.40;;
65463;SDS011;52063;45.110;9.870;2023-04-06T06:32:48;5.53;;;3.70;;
65463;SDS011;52063;45.110;9.870;2023-04-06T06:35:13;2.42;;;2.22;;
65463;SDS011;52063;45.110;9.870;2023-04-06T06:37:39;3.23;;;2.90;;
65463;SDS011;52063;45.110;9.870;2023-04-06T06:40:09;7.47;;;2.70;;
65463;SDS011;52063;45.110;9.870;2023-04-06T06:42:38;2.72;;;2.35;;
65463;SDS011;52063;45.110;9.870;2023-04-06T06:45:12;5.30;;;3.20;;
65463;SDS011;52063;45.110;9.870;2023-04-06T06:47:39;5.30;;;2.83;;
65463;SDS011;52063;45.110;9.870;2023-04-06T06:50:06;7.55;;;3.10;;
65463;SDS011;52063;45.110;9.870;2023-04-06T06:52:32;3.40;;;2.60;;
65463;SDS011;52063;45.110;9.870;2023-04-06T06:54:58;5.20;;;3.60;;
65463;SDS011;52063;45.110;9.870;2023-04-06T06:57:25;3.03;;;2.60;;
65463;SDS011;52063;45.110;9.870;2023-04-06T06:59:51;6.82;;;3.28;;
65463;SDS011;52063;45.110;9.870;2023-04-06T07:02:18;4.75;;;3.15;;
65463;SDS011;52063;45.110;9.870;2023-04-06T07:04:47;5.73;;;3.50;;
65463;SDS011;52063;45.110;9.870;2023-04-06T07:07:13;3.40;;;3.05;;
65463;SDS011;52063;45.110;9.870;2023-04-06T07:09:38;5.23;;;3.23;;
65463;SDS011;52063;45.110;9.870;2023-04-06T07:12:05;3.50;;;3.10;;
65463;SDS011;52063;45.110;9.870;2023-04-06T07:14:31;3.33;;;3.03;;
65463;SDS011;52063;45.110;9.870;2023-04-06T07:16:57;5.60;;;3.58;;
65463;SDS011;52063;45.110;9.870;2023-04-06T07:19:22;5.77;;;3.10;;
65463;SDS011;52063;45.110;9.870;2023-04-06T07:21:48;4.10;;;3.08;;
65463;SDS011;52063;45.110;9.870;2023-04-06T07:24:16;6.55;;;3.00;;
65463;SDS011;52063;45.110;9.870;2023-04-06T07:26:42;5.00;;;3.07;;
65463;SDS011;52063;45.110;9.870;2023-04-06T07:29:08;8.10;;;3.42;;
65463;SDS011;52063;45.110;9.870;2023-04-06T07:31:33;7.37;;;3.70;;
65463;SDS011;52063;45.110;9.870;2023-04-06T07:34:00;5.75;;;3.10;;
65463;SDS011;52063;45.110;9.870;2023-04-06T07:36:26;6.65;;;3.40;;
65463;SDS011;52063;45.110;9.870;2023-04-06T07:38:52;7.40;;;3.50;;
65463;SDS011;52063;45.110;9.870;2023-04-06T07:41:18;6.00;;;3.03;;
65463;SDS011;52063;45.110;9.870;2023-04-06T07:43:44;8.88;;;3.83;;
65463;SDS011;52063;45.110;9.870;2023-04-06T07:46:10;4.40;;;3.58;;
65463;SDS011;52063;45.110;9.870;2023-04-06T07:48:36;5.17;;;3.50;;
65463;SDS011;52063;45.110;9.870;2023-04-06T07:51:04;7.20;;;3.75;;
65463;SDS011;52063;45.110;9.870;2023-04-06T07:53:34;5.30;;;3.13;;
65463;SDS011;52063;45.110;9.870;2023-04-06T07:56:00;4.87;;;3.10;;
65463;SDS011;52063;45.110;9.870;2023-04-06T07:58:26;10.57;;;3.67;;
65463;SDS011;52063;45.110;9.870;2023-04-06T08:00:51;4.57;;;2.97;;
65463;SDS011;52063;45.110;9.870;2023-04-06T08:03:17;4.20;;;3.20;;
65463;SDS011;52063;45.110;9.870;2023-04-06T08:05:42;4.68;;;2.92;;
65463;SDS011;52063;45.110;9.870;2023-04-06T08:08:08;5.93;;;3.67;;
65463;SDS011;52063;45.110;9.870;2023-04-06T08:10:34;6.07;;;3.20;;
65463;SDS011;52063;45.110;9.870;2023-04-06T08:12:59;7.88;;;3.28;;
65463;SDS011;52063;45.110;9.870;2023-04-06T08:15:25;4.72;;;2.97;;
65463;SDS011;52063;45.110;9.870;2023-04-06T08:17:51;4.40;;;2.70;;
65463;SDS011;52063;45.110;9.870;2023-04-06T08:20:16;4.68;;;3.35;;
65463;SDS011;52063;45.110;9.870;2023-04-06T08:22:42;2.83;;;2.40;;
65463;SDS011;52063;45.110;9.870;2023-04-06T08:25:07;4.83;;;2.83;;
65463;SDS011;52063;45.110;9.870;2023-04-06T08:27:33;3.10;;;2.53;;
65463;SDS011;52063;45.110;9.870;2023-04-06T08:29:58;6.03;;;3.20;;
65463;SDS011;52063;45.110;9.870;2023-04-06T08:32:24;3.03;;;2.73;;
65463;SDS011;52063;45.110;9.870;2023-04-06T08:34:52;3.72;;;2.78;;
65463;SDS011;52063;45.110;9.870;2023-04-06T08:37:19;4.75;;;2.80;;
65463;SDS011;52063;45.110;9.870;2023-04-06T08:39:44;3.60;;;2.70;;
65463;SDS011;52063;45.110;9.870;2023-04-06T08:42:11;5.03;;;2.75;;
65463;SDS011;52063;45.110;9.870;2023-04-06T08:44:39;5.47;;;3.27;;
65463;SDS011;52063;45.110;9.870;2023-04-06T08:47:06;4.28;;;2.95;;
65463;SDS011;52063;45.110;9.870;2023-04-06T08:49:31;3.23;;;2.67;;
65463;SDS011;52063;45.110;9.870;2023-04-06T08:51:57;3.40;;;2.80;;
65463;SDS011;52063;45.110;9.870;2023-04-06T08:54:23;6.85;;;2.58;;
65463;SDS011;52063;45.110;9.870;2023-04-06T08:56:49;3.57;;;3.00;;
65463;SDS011;52063;45.110;9.870;2023-04-06T08:59:15;2.65;;;2.42;;
65463;SDS011;52063;45.110;9.870;2023-04-06T09:01:40;3.73;;;2.80;;
65463;SDS011;52063;45.110;9.870;2023-04-06T09:04:07;4.03;;;2.80;;
65463;SDS011;52063;45.110;9.870;2023-04-06T09:06:36;2.85;;;2.40;;
65463;SDS011;52063;45.110;9.870;2023-04-06T09:09:02;2.72;;;2.42;;
65463;SDS011;52063;45.110;9.870;2023-04-06T09:11:28;4.17;;;2.40;;
65463;SDS011;52063;45.110;9.870;2023-04-06T09:13:54;4.60;;;2.80;;
65463;SDS011;52063;45.110;9.870;2023-04-06T09:16:20;2.53;;;2.22;;
65463;SDS011;52063;45.110;9.870;2023-04-06T09:18:46;2.73;;;2.50;;
65463;SDS011;52063;45.110;9.870;2023-04-06T09:21:12;3.33;;;2.70;;
65463;SDS011;52063;45.110;9.870;2023-04-06T09:23:38;2.97;;;2.67;;
65463;SDS011;52063;45.110;9.870;2023-04-06T09:28:41;3.53;;;2.80;;
65463;SDS011;52063;45.110;9.870;2023-04-06T09:31:20;4.72;;;2.60;;
65463;SDS011;52063;45.110;9.870;2023-04-06T09:33:47;3.75;;;2.55;;
65463;SDS011;52063;45.110;9.870;2023-04-06T09:36:13;3.87;;;2.50;;
65463;SDS011;52063;45.110;9.870;2023-04-06T09:38:57;3.10;;;2.45;;
65463;SDS011;52063;45.110;9.870;2023-04-06T09:41:27;3.30;;;2.20;;
65463;SDS011;52063;45.110;9.870;2023-04-06T09:44:07;2.93;;;2.37;;
65463;SDS011;52063;45.110;9.870;2023-04-06T09:46:35;2.60;;;2.40;;
65463;SDS011;52063;45.110;9.870;2023-04-06T09:49:05;2.58;;;2.38;;
65463;SDS011;52063;45.110;9.870;2023-04-06T09:51:36;4.57;;;2.20;;
65463;SDS011;52063;45.110;9.870;2023-04-06T09:54:15;2.85;;;2.63;;
65463;SDS011;52063;45.110;9.870;2023-04-06T09:59:11;2.72;;;2.33;;
65463;SDS011;52063;45.110;9.870;2023-04-06T10:01:39;3.78;;;2.55;;
65463;SDS011;52063;45.110;9.870;2023-04-06T10:06:59;4.97;;;3.40;;
65463;SDS011;52063;45.110;9.870;2023-04-06T10:09:25;2.97;;;2.73;;
65463;SDS011;52063;45.110;9.870;2023-04-06T10:11:53;4.63;;;3.35;;
65463;SDS011;52063;45.110;9.870;2023-04-06T10:14:20;4.63;;;3.63;;
65463;SDS011;52063;45.110;9.870;2023-04-06T10:16:45;4.17;;;3.50;;
65463;SDS011;52063;45.110;9.870;2023-04-06T10:19:14;5.57;;;3.28;;
65463;SDS011;52063;45.110;9.870;2023-04-06T10:21:44;3.95;;;3.25;;
65463;SDS011;52063;45.110;9.870;2023-04-06T10:24:11;4.00;;;3.38;;
65463;SDS011;52063;45.110;9.870;2023-04-06T10:26:38;4.65;;;3.95;;
65463;SDS011;52063;45.110;9.870;2023-04-06T10:29:04;5.17;;;3.83;;
65463;SDS011;52063;45.110;9.870;2023-04-06T10:31:30;5.95;;;3.90;;
65463;SDS011;52063;45.110;9.870;2023-04-06T10:36:28;4.22;;;3.40;;
65463;SDS011;52063;45.110;9.870;2023-04-06T10:38:58;5.20;;;3.40;;
65463;SDS011;52063;45.110;9.870;2023-04-06T10:41:24;5.43;;;3.37;;
65463;SDS011;52063;45.110;9.870;2023-04-06T10:43:57;4.07;;;3.25;;
65463;SDS011;52063;45.110;9.870;2023-04-06T10:46:29;4.63;;;3.93;;
65463;SDS011;52063;45.110;9.870;2023-04-06T10:48:55;4.67;;;3.40;;
65463;SDS011;52063;45.110;9.870;2023-04-06T10:51:25;3.65;;;3.33;;
65463;SDS011;52063;45.110;9.870;2023-04-06T10:53:56;4.57;;;3.45;;
65463;SDS011;52063;45.110;9.870;2023-04-06T10:56:23;5.70;;;3.60;;
65463;SDS011;52063;45.110;9.870;2023-04-06T10:58:54;3.67;;;3.25;;
65463;SDS011;52063;45.110;9.870;2023-04-06T11:01:23;3.40;;;3.08;;
65463;SDS011;52063;45.110;9.870;2023-04-06T11:03:52;4.50;;;2.95;;
65463;SDS011;52063;45.110;9.870;2023-04-06T11:08:45;4.63;;;3.03;;
65463;SDS011;52063;45.110;9.870;2023-04-06T11:11:12;3.95;;;3.10;;
65463;SDS011;52063;45.110;9.870;2023-04-06T11:13:53;7.00;;;3.80;;
65463;SDS011;52063;45.110;9.870;2023-04-06T11:16:21;3.33;;;3.03;;
65463;SDS011;52063;45.110;9.870;2023-04-06T11:18:54;3.47;;;3.17;;
65463;SDS011;52063;45.110;9.870;2023-04-06T11:22:06;3.97;;;3.10;;
65463;SDS011;52063;45.110;9.870;2023-04-06T11:24:14;5.15;;;3.17;;
65463;SDS011;52063;45.110;9.870;2023-04-06T11:29:20;3.42;;;3.13;;
65463;SDS011;52063;45.110;9.870;2023-04-06T11:31:51;3.22;;;2.92;;
65463;SDS011;52063;45.110;9.870;2023-04-06T11:34:21;3.35;;;3.05;;
65463;SDS011;52063;45.110;9.870;2023-04-06T11:36:48;3.33;;;3.03;;
65463;SDS011;52063;45.110;9.870;2023-04-06T11:39:19;3.70;;;2.90;;
65463;SDS011;52063;45.110;9.870;2023-04-06T11:41:50;3.38;;;3.08;;
65463;SDS011;52063;45.110;9.870;2023-04-06T11:44:26;3.13;;;2.80;;
65463;SDS011;52063;45.110;9.870;2023-04-06T11:47:06;3.78;;;2.60;;
65463;SDS011;52063;45.110;9.870;2023-04-06T11:49:32;4.53;;;3.00;;
65463;SDS011;52063;45.110;9.870;2023-04-06T11:51:59;4.90;;;2.77;;
65463;SDS011;52063;45.110;9.870;2023-04-06T11:54:35;3.53;;;2.75;;
65463;SDS011;52063;45.110;9.870;2023-04-06T11:57:02;3.10;;;2.45;;
65463;SDS011;52063;45.110;9.870;2023-04-06T11:59:28;2.78;;;2.40;;
65463;SDS011;52063;45.110;9.870;2023-04-06T12:01:53;3.10;;;2.80;;
65463;SDS011;52063;45.110;9.870;2023-04-06T12:04:19;3.33;;;2.93;;
65463;SDS011;52063;45.110;9.870;2023-04-06T12:06:45;3.10;;;2.67;;
65463;SDS011;52063;45.110;9.870;2023-04-06T12:09:11;3.30;;;3.00;;
65463;SDS011;52063;45.110;9.870;2023-04-06T12:11:36;3.70;;;3.17;;
65463;SDS011;52063;45.110;9.870;2023-04-06T12:14:01;2.97;;;2.77;;
65463;SDS011;52063;45.110;9.870;2023-04-06T12:16:30;8.70;;;3.10;;
65463;SDS011;52063;45.110;9.870;2023-04-06T12:18:56;4.15;;;2.95;;
65463;SDS011;52063;45.110;9.870;2023-04-06T12:21:21;3.13;;;2.83;;
65463;SDS011;52063;45.110;9.870;2023-04-06T12:23:47;3.13;;;2.83;;
65463;SDS011;52063;45.110;9.870;2023-04-06T12:26:12;3.63;;;2.80;;
65463;SDS011;52063;45.110;9.870;2023-04-06T12:28:38;2.87;;;2.63;;
65463;SDS011;52063;45.110;9.870;2023-04-06T12:31:03;3.60;;;2.70;;
65463;SDS011;52063;45.110;9.870;2023-04-06T12:33:29;3.00;;;2.70;;
65463;SDS011;52063;45.110;9.870;2023-04-06T12:35:54;3.87;;;2.60;;
65463;SDS011;52063;45.110;9.870;2023-04-06T12:38:20;3.40;;;3.08;;
65463;SDS011;52063;45.110;9.870;2023-04-06T12:40:45;3.60;;;2.63;;
65463;SDS011;52063;45.110;9.870;2023-04-06T12:43:11;3.87;;;2.70;;
65463;SDS011;52063;45.110;9.870;2023-04-06T12:45:38;3.70;;;2.55;;
65463;SDS011;52063;45.110;9.870;2023-04-06T12:48:04;5.40;;;2.95;;
65463;SDS011;52063;45.110;9.870;2023-04-06T12:50:30;3.00;;;2.50;;
65463;SDS011;52063;45.110;9.870;2023-04-06T12:52:55;2.83;;;2.60;;
65463;SDS011;52063;45.110;9.870;2023-04-06T12:55:21;3.47;;;2.80;;
65463;SDS011;52063;45.110;9.870;2023-04-06T12:57:47;3.50;;;2.75;;
65463;SDS011;52063;45.110;9.870;2023-04-06T13:00:13;3.60;;;2.67;;
65463;SDS011;52063;45.110;9.870;2023-04-06T13:02:39;3.72;;;2.45;;
65463;SDS011;52063;45.110;9.870;2023-04-06T13:05:05;3.53;;;2.43;;
65463;SDS011;52063;45.110;9.870;2023-04-06T13:07:31;3.93;;;3.10;;
65463;SDS011;52063;45.110;9.870;2023-04-06T13:09:56;4.27;;;2.77;;
65463;SDS011;52063;45.110;9.870;2023-04-06T13:12:22;4.80;;;3.00;;
65463;SDS011;52063;45.110;9.870;2023-04-06T13:14:47;2.87;;;2.57;;
65463;SDS011;52063;45.110;9.870;2023-04-06T13:17:16;3.25;;;2.83;;
65463;SDS011;52063;45.110;9.870;2023-04-06T13:19:42;2.80;;;2.60;;
65463;SDS011;52063;45.110;9.870;2023-04-06T13:22:08;2.40;;;2.20;;
65463;SDS011;52063;45.110;9.870;2023-04-06T13:24:33;2.88;;;2.65;;
65463;SDS011;52063;45.110;9.870;2023-04-06T13:26:59;3.47;;;2.50;;
65463;SDS011;52063;45.110;9.870;2023-04-06T13:29:25;3.60;;;2.90;;
65463;SDS011;52063;45.110;9.870;2023-04-06T13:31:52;2.90;;;2.60;;
65463;SDS011;52063;45.110;9.870;2023-04-06T13:34:17;2.83;;;2.53;;
65463;SDS011;52063;45.110;9.870;2023-04-06T13:36:43;3.17;;;2.33;;
65463;SDS011;52063;45.110;9.870;2023-04-06T13:39:08;3.00;;;2.67;;
65463;SDS011;52063;45.110;9.870;2023-04-06T13:41:34;2.50;;;2.30;;
65463;SDS011;52063;45.110;9.870;2023-04-06T13:43:59;3.70;;;2.57;;
65463;SDS011;52063;45.110;9.870;2023-04-06T13:46:25;4.53;;;2.70;;
65463;SDS011;52063;45.110;9.870;2023-04-06T13:48:51;2.60;;;2.40;;
65463;SDS011;52063;45.110;9.870;2023-04-06T13:51:16;3.72;;;2.65;;
65463;SDS011;52063;45.110;9.870;2023-04-06T13:53:42;3.97;;;2.40;;
65463;SDS011;52063;45.110;9.870;2023-04-06T13:56:07;2.50;;;2.30;;
65463;SDS011;52063;45.110;9.870;2023-04-06T13:58:33;3.10;;;2.22;;
65463;SDS011;52063;45.110;9.870;2023-04-06T14:01:05;2.43;;;2.23;;
65463;SDS011;52063;45.110;9.870;2023-04-06T14:03:37;2.47;;;2.28;;
65463;SDS011;52063;45.110;9.870;2023-04-06T14:06:11;2.70;;;2.50;;
65463;SDS011;52063;45.110;9.870;2023-04-06T14:08:36;2.40;;;2.00;;
65463;SDS011;52063;45.110;9.870;2023-04-06T14:11:02;2.50;;;2.30;;
65463;SDS011;52063;45.110;9.870;2023-04-06T14:13:27;2.43;;;2.23;;
65463;SDS011;52063;45.110;9.870;2023-04-06T14:15:53;5.50;;;2.77;;
65463;SDS011;52063;45.110;9.870;2023-04-06T14:18:20;3.20;;;2.90;;
65463;SDS011;52063;45.110;9.870;2023-04-06T14:20:53;2.53;;;2.33;;
65463;SDS011;52063;45.110;9.870;2023-04-06T14:23:19;2.88;;;2.33;;
65463;SDS011;52063;45.110;9.870;2023-04-06T14:25:45;2.80;;;2.53;;
65463;SDS011;52063;45.110;9.870;2023-04-06T14:28:11;2.55;;;2.30;;
65463;SDS011;52063;45.110;9.870;2023-04-06T14:30:39;2.97;;;2.45;;
65463;SDS011;52063;45.110;9.870;2023-04-06T14:33:05;3.20;;;2.90;;
65463;SDS011;52063;45.110;9.870;2023-04-06T14:35:30;2.73;;;2.30;;
65463;SDS011;52063;45.110;9.870;2023-04-06T14:37:57;2.42;;;2.22;;
65463;SDS011;52063;45.110;9.870;2023-04-06T14:40:23;3.30;;;2.28;;
65463;SDS011;52063;45.110;9.870;2023-04-06T14:42:49;3.07;;;2.60;;
65463;SDS011;52063;45.110;9.870;2023-04-06T14:45:18;2.85;;;2.58;;
65463;SDS011;52063;45.110;9.870;2023-04-06T14:47:46;2.55;;;2.35;;
65463;SDS011;52063;45.110;9.870;2023-04-06T14:50:12;2.45;;;2.25;;
65463;SDS011;52063;45.110;9.870;2023-04-06T14:52:37;3.43;;;2.27;;
65463;SDS011;52063;45.110;9.870;2023-04-06T14:55:03;2.80;;;2.50;;
65463;SDS011;52063;45.110;9.870;2023-04-06T14:57:29;2.70;;;2.50;;
65463;SDS011;52063;45.110;9.870;2023-04-06T14:59:56;2.40;;;2.20;;
65463;SDS011;52063;45.110;9.870;2023-04-06T15:02:21;3.83;;;2.33;;
65463;SDS011;52063;45.110;9.870;2023-04-06T15:04:47;3.33;;;2.75;;
65463;SDS011;52063;45.110;9.870;2023-04-06T15:07:12;2.47;;;2.27;;